AirNav   Pilot Hours Calculator
 
 1321 users online  

NH22 Lancaster Heliport
Lancaster, New Hampshire, USA

GOING TO LANCASTER?


FAA INFORMATION EFFECTIVE 30 JANUARY 2020

Location

FAA Identifier: NH22
Lat/Long: 44-30-13.2050N 071-34-09.3040W
44-30.220083N 071-34.155067W
44.5036681,-71.5692511
(estimated)
Elevation: 860 ft. / 262.1 m (surveyed)
Variation: 17W (1985)
From city: 1 mile N of LANCASTER, NH
Time zone: UTC -5 (UTC -4 during Daylight Saving Time)
Zip code: 03584

Heliport Operations

Heliport use: Private use. Permission required prior to landing
Activation date: 12/1944
Control tower: no
ARTCC: BOSTON CENTER
FSS: BANGOR FLIGHT SERVICE STATION
Attendance: UNATNDD
Wind indicator: yes
Segmented circle: no

Heliport Communications

WX ASOS at HIE (8 nm S): 118.525 (603-837-2769)
WX ASOS at BML (17 nm E): 135.175 (603-449-3328)
WX AWOS-3 at CDA (20 nm W): 119.275 (802-626-4532)

Nearby radio navigation aids

VOR radial/distance  VOR name  Freq  Var
BMLr262/18.1BERLIN VOR/DME110.4017W

 
NDB name  Hdg/Dist  Freq  Var  ID
MAHN048/9.838617WGMA --. -- .-

Heliport Services

Airframe service: NONE
Powerplant service: NONE

Runway Information

Helipad H1

Dimensions: 100 x 100 ft. / 30 x 30 m
Surface: asphalt/turf
Latitude: 44-30.220083N
Longitude: 071-34.155067W
Elevation: 860.0 ft.
Traffic pattern: leftleft

Heliport Ownership and Management from official FAA records

Ownership: Privately-owned
Owner: PUBLIC SERVICE CO. OF N.H.
780 N. COMMERCIAL ST.
MANCHESTER, NH 03101
Phone (800) 286-5000
Manager: THELMA J. BROWN
PO BOX 330
MANCHESTER, NH 03105
Phone 603-634-2944

Additional Remarks

FOR CD CTC BOSTON ARTCC AT 603-879-6859.

Instrument Procedures

There are no published instrument procedures at NH22.

Some nearby airports with instrument procedures:

KHIE - Mount Washington Regional Airport (8 nm S)
KBML - Berlin Regional Airport (17 nm E)
KCDA - Caledonia County Airport (20 nm W)
5B9 - Dean Memorial Airport (32 nm SW)
0B1 - Bethel Regional Airport (33 nm E)
 
Loc | Ops | Rwys | IFR | FBO | Links
Com | Nav | Svcs | Stats | Notes
Area around NH22 (Lancaster Heliport)
 
Road maps at: MapQuest Bing Google
 
Aerial photo
No photo
 
Sectional chart

 
Airport distance calculator
Flying to Lancaster Heliport? Find the distance to fly.

From to NH22

Sunrise and sunset
Times for 17-Feb-2020
 Local
(UTC-5)
 Zulu
(UTC)
Morning civil twilight06:1511:15
Sunrise06:4411:44
Sunset17:1622:16
Evening civil twilight17:4622:46

Current date and time
Zulu (UTC)  17-Feb-2020 15:40:13
Local (UTC-5)  17-Feb-2020 10:40:13
 
METAR
KHIE 
8nm S 
171452Z AUTO 29012KT 10SM OVC035 M04/M12 A3017 RMK AO2 SLP232 T10441117 51026
KBML 
17nm E 
171452Z AUTO VRB06KT 8SM SCT032 OVC040 M04/M11 A3014 RMK AO2 SNE52 SLP224 P0000 60000 T10441111 51029
KMWN 
19nm SE 
171447Z 29057KT 70SM OVC/// SCT/// FEW060 M16/M19 RMK TPS LWR OVC055 BBLO SCT NE-SE VIS LWR NE-SE
KCDA 
20nm W 
171515Z AUTO 28008KT 10SM OVC033 M06/M12 A3020 RMK AO2 T10571118
K1V4 
20nm W 
171454Z AUTO M04/M12 A3019 RMK AO1 SLP237 T10391117 51025
TAF
KHIE 
8nm S 
171132Z 1712/1812 28004KT P6SM VCSH SCT015 SCT030 FM171600 29008KT P6SM FEW035 FM172300 00000KT P6SM SKC
NOTAMs
Click for the latest NOTAMs
NOTAMs are issued by the DoD/FAA and will open in a separate window not controlled by AirNav.

 

 
 

Would you like to see your business listed on this page?

 If your business provides an interesting product or service to pilots, flight crews, aircraft, or users of the Lancaster Heliport, you should consider listing it here.  To start the listing process, click on the button below
 
Add a business
 

Other Pages about Lancaster Heliport

Update a link
 
Copyright © AirNav, LLC. All rights reserved. Privacy Policy  Contact